createdAt,value
2023-01-23T00:00:12.072Z,10.85
2023-01-23T00:02:39.862Z,10.20
2023-01-23T00:05:08.598Z,11.25
2023-01-23T00:07:36.489Z,10.40
2023-01-23T00:10:04.813Z,10.40
2023-01-23T00:12:32.569Z,11.18
2023-01-23T00:15:00.349Z,10.10
2023-01-23T00:17:29.646Z,10.40
2023-01-23T00:19:58.313Z,9.23
2023-01-23T00:22:26.168Z,9.57
2023-01-23T00:24:54.022Z,9.05
2023-01-23T00:27:21.829Z,8.52
2023-01-23T00:29:49.680Z,8.90
2023-01-23T00:32:17.685Z,9.65
2023-01-23T00:34:47.310Z,9.05
2023-01-23T00:37:16.953Z,9.13
2023-01-23T00:39:46.192Z,10.45
2023-01-23T00:42:14.078Z,10.02
2023-01-23T00:44:41.856Z,10.27
2023-01-23T00:47:09.751Z,9.38
2023-01-23T00:49:37.525Z,10.38
2023-01-23T00:52:07.535Z,10.48
2023-01-23T00:54:35.407Z,9.50
2023-01-23T00:57:03.168Z,10.32
2023-01-23T00:59:31.209Z,10.48
2023-01-23T01:01:59.110Z,10.73
2023-01-23T01:04:26.947Z,10.00
2023-01-23T01:06:55.262Z,10.15
2023-01-23T01:09:25.547Z,10.95
2023-01-23T01:11:53.411Z,11.23
2023-01-23T01:14:21.372Z,12.02
2023-01-23T01:16:49.354Z,11.75
2023-01-23T01:19:18.279Z,10.82
2023-01-23T01:21:46.489Z,10.75
2023-01-23T01:24:14.295Z,11.30
2023-01-23T01:26:43.510Z,10.60
2023-01-23T01:29:11.269Z,11.45
2023-01-23T01:31:39.084Z,11.50
2023-01-23T01:34:06.885Z,10.38
2023-01-23T01:36:34.735Z,10.30
2023-01-23T01:39:02.541Z,11.50
2023-01-23T01:41:30.918Z,9.95
2023-01-23T01:44:00.197Z,10.48
2023-01-23T01:46:29.828Z,11.10
2023-01-23T01:49:09.151Z,10.48
2023-01-23T01:51:42.233Z,10.25
2023-01-23T01:54:17.764Z,9.80
2023-01-23T01:56:50.073Z,9.07
2023-01-23T01:59:21.076Z,10.10
2023-01-23T02:01:54.753Z,9.32
2023-01-23T02:04:22.615Z,9.73
2023-01-23T02:06:51.927Z,10.40
2023-01-23T02:09:25.425Z,9.35
2023-01-23T02:11:54.589Z,9.32
2023-01-23T02:14:25.760Z,9.15
2023-01-23T02:16:56.130Z,8.30
2023-01-23T02:19:38.509Z,10.23
2023-01-23T02:22:15.997Z,9.60
2023-01-23T02:24:53.559Z,8.95
2023-01-23T02:27:24.342Z,8.38
2023-01-23T02:29:56.182Z,10.20
2023-01-23T02:32:26.962Z,10.30
2023-01-23T02:34:58.787Z,9.45
2023-01-23T02:37:31.853Z,8.82
2023-01-23T02:42:29.602Z,10.05
2023-01-23T02:44:58.086Z,9.60
2023-01-23T02:47:26.088Z,11.02
2023-01-23T02:49:57.449Z,10.60
2023-01-23T02:52:25.566Z,11.40
2023-01-23T02:54:53.341Z,10.73
2023-01-23T02:57:21.161Z,11.45
2023-01-23T03:00:08.201Z,11.40
2023-01-23T03:02:38.183Z,10.70
2023-01-23T03:05:06.823Z,10.15
2023-01-23T03:07:34.779Z,10.07
2023-01-23T03:10:04.655Z,10.20
2023-01-23T03:12:32.591Z,9.30
2023-01-23T03:15:02.659Z,9.98
2023-01-23T03:17:30.615Z,10.80
2023-01-23T03:19:58.909Z,11.20
2023-01-23T03:22:27.500Z,11.55
2023-01-23T03:24:57.634Z,11.98
2023-01-23T03:27:25.741Z,11.85
2023-01-23T03:30:13.511Z,12.40
2023-01-23T03:32:44.118Z,12.55
2023-01-23T03:35:16.427Z,12.05
2023-01-23T03:37:44.421Z,11.65
2023-01-23T03:40:49.718Z,11.05
2023-01-23T03:43:19.264Z,10.07
2023-01-23T03:45:49.996Z,10.38
2023-01-23T03:48:20.234Z,10.63
2023-01-23T03:50:48.104Z,11.02
2023-01-23T03:53:18.613Z,10.43
2023-01-23T03:55:46.807Z,11.40
2023-01-23T03:58:14.789Z,11.30
2023-01-23T04:00:44.957Z,10.38
2023-01-23T04:03:12.910Z,10.15
2023-01-23T04:05:42.107Z,10.00
2023-01-23T04:08:10.054Z,9.93
2023-01-23T04:10:38.370Z,9.68
2023-01-23T04:13:13.043Z,10.57
2023-01-23T04:15:41.549Z,10.70
2023-01-23T04:18:09.571Z,9.77
2023-01-23T04:20:37.539Z,10.57
2023-01-23T04:23:06.994Z,10.15
2023-01-23T04:25:34.834Z,9.63
2023-01-23T04:28:05.002Z,9.05
2023-01-23T04:30:33.554Z,9.05
2023-01-23T04:33:09.105Z,10.15
2023-01-23T04:35:37.745Z,9.13
2023-01-23T04:38:07.146Z,10.27
2023-01-23T04:40:37.015Z,10.30
2023-01-23T04:43:05.045Z,10.77
2023-01-23T04:45:40.576Z,9.73
2023-01-23T04:48:28.703Z,8.63
2023-01-23T04:50:56.545Z,9.32
2023-01-23T04:53:25.704Z,9.38
2023-01-23T04:56:00.576Z,8.32
2023-01-23T04:58:28.555Z,8.60
2023-01-23T05:01:03.636Z,9.18
2023-01-23T05:03:34.861Z,8.68
2023-01-23T05:06:02.869Z,8.27
2023-01-23T05:08:32.102Z,8.43
2023-01-23T05:11:15.978Z,8.70
2023-01-23T05:13:44.883Z,8.43
2023-01-23T05:16:14.076Z,7.57
2023-01-23T05:19:00.506Z,9.15
2023-01-23T05:21:29.562Z,9.20
2023-01-23T05:23:58.779Z,9.23
2023-01-23T05:26:26.631Z,9.15
2023-01-23T05:28:56.100Z,9.93
2023-01-23T05:31:24.007Z,8.57
2023-01-23T05:34:11.873Z,8.32
2023-01-23T05:36:41.155Z,7.93
2023-01-23T05:39:10.357Z,7.90
2023-01-23T05:41:38.179Z,7.75
2023-01-23T05:44:31.516Z,8.95
2023-01-23T05:47:20.175Z,9.00
2023-01-23T05:49:49.266Z,8.02
2023-01-23T05:52:17.083Z,9.27
2023-01-23T05:54:46.331Z,8.63
2023-01-23T05:57:14.577Z,8.90
2023-01-23T05:59:45.521Z,8.65
2023-01-23T06:02:31.976Z,8.77
2023-01-23T06:05:28.643Z,8.55
2023-01-23T06:08:03.623Z,9.40
2023-01-23T06:10:32.892Z,9.13
2023-01-23T06:13:00.673Z,8.65
2023-01-23T06:15:28.622Z,7.70
2023-01-23T06:17:57.880Z,7.50
2023-01-23T06:20:26.926Z,7.28
2023-01-23T06:22:54.828Z,7.50
2023-01-23T06:25:22.895Z,7.72
2023-01-23T06:27:55.179Z,7.78
2023-01-23T06:30:24.752Z,7.68
2023-01-23T06:32:52.748Z,8.13
2023-01-23T06:35:27.694Z,8.25
2023-01-23T06:37:56.348Z,7.70
2023-01-23T06:40:24.987Z,8.15
2023-01-23T06:43:07.171Z,7.97
2023-01-23T06:45:35.100Z,8.25
2023-01-23T06:48:02.933Z,7.70
2023-01-23T06:50:30.946Z,8.23
2023-01-23T06:52:58.687Z,8.55
2023-01-23T06:55:26.765Z,8.00
2023-01-23T06:57:54.823Z,7.68
2023-01-23T07:00:24.395Z,7.80
2023-01-23T07:02:59.284Z,7.80
2023-01-23T07:05:27.436Z,6.70
2023-01-23T07:07:55.735Z,7.30
2023-01-23T07:10:23.896Z,7.38
2023-01-23T07:12:52.307Z,8.23
2023-01-23T07:15:20.256Z,9.10
2023-01-23T07:17:50.681Z,7.90
2023-01-23T07:20:19.001Z,8.30
2023-01-23T07:22:51.348Z,8.05
2023-01-23T07:25:19.196Z,8.13
2023-01-23T07:27:46.980Z,8.25
2023-01-23T07:30:15.253Z,7.93
2023-01-23T07:32:43.182Z,7.97
2023-01-23T07:35:12.379Z,9.30
2023-01-23T07:37:40.233Z,8.25
2023-01-23T07:40:08.996Z,8.23
2023-01-23T07:42:36.738Z,8.65
2023-01-23T07:45:04.918Z,8.50
2023-01-23T07:47:32.864Z,8.57
2023-01-23T07:50:00.793Z,9.00
2023-01-23T07:52:30.082Z,10.10
2023-01-23T07:54:57.916Z,9.80
2023-01-23T07:57:25.774Z,10.52
2023-01-23T07:59:53.710Z,10.00
2023-01-23T08:02:21.522Z,10.05
2023-01-23T08:04:49.458Z,8.52
2023-01-23T08:07:17.417Z,8.77
2023-01-23T08:09:46.725Z,8.38
2023-01-23T08:12:14.553Z,9.23
2023-01-23T08:14:42.391Z,10.75
2023-01-23T08:17:10.249Z,9.90
2023-01-23T08:19:38.472Z,9.52
2023-01-23T08:22:06.298Z,9.45
2023-01-23T08:24:34.186Z,9.20
2023-01-23T08:27:03.439Z,8.13
2023-01-23T08:29:32.637Z,8.95
2023-01-23T08:32:01.038Z,10.50
2023-01-23T08:34:28.932Z,8.10
2023-01-23T08:36:56.710Z,10.15
2023-01-23T08:39:25.312Z,9.57
2023-01-23T08:41:53.177Z,10.10
2023-01-23T08:44:22.370Z,10.77
2023-01-23T08:46:50.198Z,9.60
2023-01-23T08:49:19.529Z,10.45
2023-01-23T08:51:47.475Z,9.07
2023-01-23T08:54:15.590Z,10.95
2023-01-23T08:56:43.380Z,10.20
2023-01-23T08:59:11.307Z,10.27
2023-01-23T09:01:40.455Z,9.40
2023-01-23T09:04:08.454Z,8.98
2023-01-23T09:06:36.354Z,10.13
2023-01-23T09:09:04.400Z,9.93
2023-01-23T09:11:32.452Z,10.13
2023-01-23T09:14:00.294Z,11.00
2023-01-23T09:16:28.110Z,9.68
2023-01-23T09:18:57.503Z,11.00
2023-01-23T09:21:25.306Z,10.57
2023-01-23T09:23:53.170Z,10.73
2023-01-23T09:26:20.920Z,10.68
2023-01-23T09:28:48.735Z,10.20
2023-01-23T09:31:16.559Z,10.35
2023-01-23T09:33:44.503Z,10.63
2023-01-23T09:36:13.701Z,9.45
2023-01-23T09:38:41.504Z,9.38
2023-01-23T09:41:12.410Z,9.38
2023-01-23T09:43:46.310Z,10.13
2023-01-23T09:46:20.257Z,10.63
2023-01-23T09:48:52.119Z,11.40
2023-01-23T09:51:28.814Z,11.65
2023-01-23T09:54:01.379Z,10.85
2023-01-23T09:56:32.529Z,10.38
2023-01-23T09:59:08.531Z,10.38
2023-01-23T10:01:38.009Z,11.20
2023-01-23T10:04:06.801Z,10.85
2023-01-23T10:06:56.279Z,10.38
2023-01-23T10:09:38.227Z,11.60
2023-01-23T10:12:14.584Z,10.75
2023-01-23T10:15:00.209Z,10.48
2023-01-23T10:17:34.485Z,10.02
2023-01-23T10:20:25.142Z,10.80
2023-01-23T10:23:07.719Z,9.63
2023-01-23T10:25:40.942Z,10.20
2023-01-23T10:28:26.982Z,11.48
2023-01-23T10:30:59.908Z,11.50
2023-01-23T10:36:04.573Z,9.13
2023-01-23T10:38:38.614Z,9.63
2023-01-23T10:41:21.176Z,8.93
2023-01-23T10:43:52.898Z,9.10
2023-01-23T10:46:22.565Z,10.40
2023-01-23T10:48:51.979Z,10.23
2023-01-23T10:51:32.499Z,9.88
2023-01-23T10:54:22.660Z,9.70
2023-01-23T10:57:00.501Z,8.20
2023-01-23T10:59:32.642Z,8.30
2023-01-23T11:02:19.918Z,8.30
2023-01-23T11:04:51.627Z,8.98
2023-01-23T11:07:22.933Z,8.40
2023-01-23T11:09:55.618Z,8.60
2023-01-23T11:12:25.760Z,8.40
2023-01-23T11:15:12.147Z,8.68
2023-01-23T11:17:40.510Z,9.88
2023-01-23T11:20:13.360Z,8.88
2023-01-23T11:22:42.190Z,9.10
2023-01-23T11:25:31.125Z,9.15
2023-01-23T11:28:01.465Z,10.35
2023-01-23T11:30:45.548Z,9.77
2023-01-23T11:33:18.545Z,9.43
2023-01-23T11:35:55.783Z,9.05
2023-01-23T11:38:31.079Z,9.65
2023-01-23T11:41:00.588Z,10.70
2023-01-23T11:43:28.451Z,9.23
2023-01-23T11:46:13.563Z,9.85
2023-01-23T11:48:55.166Z,9.18
2023-01-23T11:51:33.719Z,9.77
2023-01-23T11:54:13.488Z,9.43
2023-01-23T11:56:55.810Z,9.88
2023-01-23T11:59:46.175Z,10.93
2023-01-23T12:02:40.765Z,10.52
2023-01-23T12:05:38.392Z,10.27
2023-01-23T12:08:19.136Z,10.15
2023-01-23T12:10:55.689Z,9.90
2023-01-23T12:13:41.557Z,9.95
2023-01-23T12:16:21.715Z,8.63
2023-01-23T12:19:07.582Z,8.70
2023-01-23T12:21:45.384Z,8.02
2023-01-23T12:24:22.902Z,8.13
2023-01-23T12:27:01.688Z,8.85
2023-01-23T12:29:57.066Z,9.00
2023-01-23T12:32:45.024Z,9.25
2023-01-23T12:35:28.055Z,8.65
2023-01-23T12:38:11.629Z,8.23
2023-01-23T12:40:44.662Z,7.68
2023-01-23T12:45:50.384Z,7.13
2023-01-23T12:48:28.095Z,8.10
2023-01-23T12:51:02.089Z,7.53
2023-01-23T12:53:36.083Z,7.78
2023-01-23T12:56:10.792Z,7.10
2023-01-23T12:58:42.720Z,8.60
2023-01-23T13:01:22.844Z,7.68
2023-01-23T13:04:05.517Z,7.18
2023-01-23T13:06:51.453Z,7.03
2023-01-23T13:09:30.297Z,7.80
2023-01-23T13:12:08.740Z,7.70
2023-01-23T13:17:47.945Z,7.20
2023-01-23T13:20:43.487Z,7.20
2023-01-23T13:23:29.698Z,7.10
2023-01-23T13:26:31.245Z,7.25
2023-01-23T13:29:02.141Z,7.70
2023-01-23T13:31:45.246Z,6.40
2023-01-23T13:34:42.124Z,6.75
2023-01-23T13:37:51.482Z,7.88
2023-01-23T13:40:24.902Z,6.53
2023-01-23T13:42:52.949Z,6.50
2023-01-23T13:45:31.909Z,7.28
2023-01-23T14:20:19.299Z,8.20
2023-01-23T14:22:47.409Z,7.57
2023-01-23T14:25:19.225Z,8.45
2023-01-23T14:27:54.149Z,8.38
2023-01-23T14:30:27.072Z,7.70
2023-01-23T14:32:55.779Z,7.72
2023-01-23T14:35:26.400Z,8.23
2023-01-23T14:37:58.405Z,8.15
2023-01-23T14:40:35.202Z,8.50
2023-01-23T14:43:08.699Z,9.00
2023-01-23T14:45:38.530Z,8.10
2023-01-23T14:48:08.192Z,8.10
2023-01-23T14:50:36.585Z,8.00
2023-01-23T14:53:06.583Z,8.45
2023-01-23T14:55:38.623Z,7.47
2023-01-23T14:58:07.543Z,7.60
2023-01-23T15:00:37.192Z,8.30
2023-01-23T15:03:05.614Z,7.50
2023-01-23T15:05:33.880Z,7.18
2023-01-23T15:08:04.395Z,8.20
2023-01-23T15:10:44.680Z,7.32
2023-01-23T15:13:21.441Z,7.47
2023-01-23T15:15:56.663Z,7.53
2023-01-23T15:18:27.525Z,7.40
2023-01-23T15:20:57.137Z,7.32
2023-01-23T15:23:32.149Z,8.68
2023-01-23T15:26:21.338Z,7.68
2023-01-23T15:28:51.333Z,6.47
2023-01-23T15:31:31.407Z,7.05
2023-01-23T15:34:19.616Z,6.95
2023-01-23T15:36:49.412Z,7.20
2023-01-23T15:39:22.000Z,6.90
2023-01-23T15:41:53.678Z,6.70
2023-01-23T15:44:23.727Z,7.20
2023-01-23T15:46:51.683Z,7.30
2023-01-23T15:49:25.957Z,7.47
2023-01-23T15:51:56.621Z,7.97
2023-01-23T15:54:29.504Z,7.55
2023-01-23T15:57:07.083Z,7.47
2023-01-23T15:59:37.238Z,7.65
2023-01-23T16:02:05.505Z,7.65
2023-01-23T16:04:33.604Z,7.75
2023-01-23T16:07:05.928Z,7.43
2023-01-23T16:09:36.907Z,7.40
2023-01-23T16:12:06.821Z,7.60
2023-01-23T16:14:34.770Z,7.30
2023-01-23T16:17:15.936Z,7.43
2023-01-23T16:19:45.003Z,8.27
2023-01-23T16:22:18.941Z,7.47
2023-01-23T16:24:47.182Z,6.90
2023-01-23T16:27:22.960Z,7.43
2023-01-23T16:29:50.839Z,7.35
2023-01-23T16:32:18.755Z,6.30
2023-01-23T16:34:46.735Z,6.80
2023-01-23T16:37:17.225Z,6.90
2023-01-23T16:39:46.933Z,7.53
2023-01-23T16:42:25.098Z,7.53
2023-01-23T16:44:53.196Z,7.32
2023-01-23T16:47:20.903Z,7.13
2023-01-23T16:49:53.616Z,8.20
2023-01-23T16:52:26.035Z,8.02
2023-01-23T16:54:55.576Z,7.72
2023-01-23T16:57:25.853Z,8.07
2023-01-23T16:59:56.515Z,7.25
2023-01-23T17:02:28.796Z,7.03
2023-01-23T17:04:57.882Z,8.00
2023-01-23T17:07:25.739Z,7.18
2023-01-23T17:09:53.651Z,7.47
2023-01-23T17:12:27.606Z,7.63
2023-01-23T17:14:57.500Z,8.00
2023-01-23T17:17:30.479Z,8.48
2023-01-23T17:20:01.028Z,8.07
2023-01-23T17:22:31.449Z,9.00
2023-01-23T17:24:59.702Z,8.13
2023-01-23T17:27:27.467Z,8.60
2023-01-23T17:29:56.738Z,8.40
2023-01-23T17:32:30.415Z,8.52
2023-01-23T17:35:01.802Z,9.02
2023-01-23T17:37:31.123Z,8.55
2023-01-23T17:39:58.912Z,8.40
2023-01-23T17:42:26.824Z,7.10
2023-01-23T17:44:55.950Z,6.72
2023-01-23T17:47:24.072Z,7.95
2023-01-23T17:49:54.561Z,7.75
2023-01-23T17:52:24.782Z,7.85
2023-01-23T17:54:54.339Z,7.80
2023-01-23T17:57:22.457Z,7.70
2023-01-23T17:59:50.246Z,6.50
2023-01-23T18:02:28.516Z,7.82
2023-01-23T18:04:57.143Z,7.47
2023-01-23T18:07:25.005Z,6.85
2023-01-23T18:09:55.468Z,6.95
2023-01-23T18:12:31.526Z,8.23
2023-01-23T18:15:07.419Z,8.82
2023-01-23T18:17:43.355Z,9.85
2023-01-23T18:20:18.686Z,8.70
2023-01-23T18:22:47.326Z,8.20
2023-01-23T18:25:16.756Z,8.43
2023-01-23T18:27:49.022Z,8.02
2023-01-23T18:30:46.827Z,7.67
2023-01-23T18:33:50.748Z,8.00
2023-01-23T18:36:31.519Z,8.02
2023-01-23T18:39:23.674Z,8.73
2023-01-23T18:42:03.948Z,9.10
2023-01-23T18:44:35.486Z,8.05
2023-01-23T18:47:05.660Z,8.65
2023-01-23T18:49:38.239Z,8.02
2023-01-23T18:52:12.094Z,7.88
2023-01-23T18:54:48.259Z,7.72
2023-01-23T18:57:28.145Z,7.18
2023-01-23T19:00:05.871Z,7.88
2023-01-23T19:02:39.217Z,7.28
2023-01-23T19:05:25.840Z,7.05
2023-01-23T19:07:54.209Z,8.15
2023-01-23T19:10:23.537Z,7.85
2023-01-23T19:13:07.698Z,8.10
2023-01-23T19:15:42.565Z,8.75
2023-01-23T19:18:40.815Z,9.20
2023-01-23T19:21:16.071Z,8.32
2023-01-23T19:23:51.687Z,8.93
2023-01-23T19:26:20.454Z,8.57
2023-01-23T19:28:49.035Z,9.40
2023-01-23T19:31:22.407Z,9.25
2023-01-23T19:33:50.444Z,8.43
2023-01-23T19:36:20.203Z,9.35
2023-01-23T19:38:52.505Z,7.83
2023-01-23T19:41:22.224Z,8.40
2023-01-23T19:43:54.089Z,8.45
2023-01-23T19:46:23.563Z,8.10
2023-01-23T19:48:55.562Z,9.88
2023-01-23T19:51:26.483Z,9.03
2023-01-23T19:53:55.439Z,8.52
2023-01-23T19:56:23.272Z,9.05
2023-01-23T19:58:51.437Z,8.95
2023-01-23T20:01:24.101Z,8.23
2023-01-23T20:03:52.236Z,8.82
2023-01-23T20:06:20.009Z,8.85
2023-01-23T20:08:52.353Z,9.32
2023-01-23T20:11:20.399Z,9.43
2023-01-23T20:13:48.341Z,10.32
2023-01-23T20:16:20.002Z,9.88
2023-01-23T20:18:49.027Z,10.23
2023-01-23T20:21:18.244Z,10.20
2023-01-23T20:23:46.533Z,9.18
2023-01-23T20:26:17.680Z,10.10
2023-01-23T20:28:47.781Z,9.13
2023-01-23T20:31:15.906Z,9.10
2023-01-23T20:33:44.253Z,8.70
2023-01-23T20:36:13.389Z,9.32
2023-01-23T20:38:42.893Z,9.88
2023-01-23T20:41:13.095Z,9.38
2023-01-23T20:43:42.935Z,8.82
2023-01-23T20:46:12.137Z,8.90
2023-01-23T20:48:41.668Z,8.45
2023-01-23T20:51:10.283Z,8.60
2023-01-23T20:53:39.936Z,8.30
2023-01-23T20:56:10.377Z,7.57
2023-01-23T20:58:57.615Z,8.10
2023-01-23T21:01:28.535Z,8.10
2023-01-23T21:03:56.562Z,8.18
2023-01-23T21:06:24.342Z,7.63
2023-01-23T21:08:52.190Z,7.38
2023-01-23T21:11:20.950Z,6.93
2023-01-23T21:13:51.970Z,7.90
2023-01-23T21:16:19.868Z,7.53
2023-01-23T21:18:50.077Z,7.53
2023-01-23T21:21:20.525Z,7.47
2023-01-23T21:23:50.169Z,7.88
2023-01-23T21:26:20.582Z,7.32
2023-01-23T21:28:53.227Z,8.23
2023-01-23T21:31:24.418Z,7.57
2023-01-23T21:33:56.794Z,8.10
2023-01-23T21:36:29.560Z,7.55
2023-01-23T21:39:00.703Z,6.80
2023-01-23T21:41:35.434Z,7.30
2023-01-23T21:44:03.477Z,7.47
2023-01-23T21:46:31.336Z,7.00
2023-01-23T21:49:00.565Z,7.30
2023-01-23T21:51:31.423Z,6.90
2023-01-23T21:54:00.296Z,7.18
2023-01-23T21:56:28.367Z,6.68
2023-01-23T21:58:56.424Z,8.00
2023-01-23T22:01:35.670Z,7.22
2023-01-23T22:04:06.993Z,7.40
2023-01-23T22:06:38.096Z,7.57
2023-01-23T22:09:06.815Z,6.93
2023-01-23T22:11:37.955Z,6.63
2023-01-23T22:14:06.027Z,8.43
2023-01-23T22:16:47.862Z,7.95
2023-01-23T22:19:22.037Z,7.25
2023-01-23T22:21:51.347Z,7.38
2023-01-23T22:24:19.312Z,7.13
2023-01-23T22:26:47.150Z,7.70
2023-01-23T22:29:15.297Z,8.00
2023-01-23T22:31:43.299Z,8.55
2023-01-23T22:34:11.434Z,8.38
2023-01-23T22:36:40.774Z,8.45
2023-01-23T22:39:08.550Z,7.72
2023-01-23T22:41:36.328Z,8.52
2023-01-23T22:44:04.220Z,8.95
2023-01-23T22:46:32.592Z,8.95
2023-01-23T22:49:00.389Z,8.55
2023-01-23T22:51:29.195Z,7.72
2023-01-23T22:53:59.830Z,7.60
2023-01-23T22:56:29.035Z,7.70
2023-01-23T22:58:57.694Z,7.25
2023-01-23T23:01:26.974Z,8.20
2023-01-23T23:03:55.385Z,7.43
2023-01-23T23:06:23.326Z,8.20
2023-01-23T23:08:51.094Z,8.57
2023-01-23T23:11:22.084Z,9.18
2023-01-23T23:13:50.510Z,8.63
2023-01-23T23:16:20.729Z,8.73
2023-01-23T23:18:51.344Z,8.18
2023-01-23T23:21:21.427Z,8.00
2023-01-23T23:23:49.324Z,7.60
2023-01-23T23:26:17.633Z,8.65
2023-01-23T23:28:46.793Z,8.02
2023-01-23T23:31:16.988Z,8.02
2023-01-23T23:33:44.907Z,8.43
2023-01-23T23:36:13.030Z,8.20
2023-01-23T23:38:40.927Z,8.10
2023-01-23T23:41:12.418Z,8.20
2023-01-23T23:43:40.210Z,8.85
2023-01-23T23:46:10.908Z,9.35
2023-01-23T23:48:39.700Z,9.80
2023-01-23T23:51:09.716Z,8.95
2023-01-23T23:53:37.696Z,8.77
2023-01-23T23:56:06.880Z,10.20
2023-01-23T23:58:36.367Z,10.10
